sensor_id;sensor_type;location;lat;lon;timestamp;temperature;humidity
11650;DHT22;5881;48.522;7.682;2022-07-29T00:00:37;20.20;1.00
11650;DHT22;5881;48.522;7.682;2022-07-29T00:03:03;20.10;1.00
11650;DHT22;5881;48.522;7.682;2022-07-29T00:05:28;20.00;1.00
11650;DHT22;5881;48.522;7.682;2022-07-29T00:07:54;19.90;1.00
11650;DHT22;5881;48.522;7.682;2022-07-29T00:10:20;19.90;1.00
11650;DHT22;5881;48.522;7.682;2022-07-29T00:12:46;19.80;1.00
11650;DHT22;5881;48.522;7.682;2022-07-29T00:15:12;19.70;1.00
11650;DHT22;5881;48.522;7.682;2022-07-29T00:17:38;19.60;1.00
11650;DHT22;5881;48.522;7.682;2022-07-29T00:20:04;19.60;1.00
11650;DHT22;5881;48.522;7.682;2022-07-29T00:22:30;19.60;1.00
11650;DHT22;5881;48.522;7.682;2022-07-29T00:24:55;19.50;1.00
11650;DHT22;5881;48.522;7.682;2022-07-29T00:27:21;19.60;1.00
11650;DHT22;5881;48.522;7.682;2022-07-29T00:29:47;19.50;1.00
11650;DHT22;5881;48.522;7.682;2022-07-29T00:32:13;19.50;1.00
11650;DHT22;5881;48.522;7.682;2022-07-29T00:34:39;19.50;1.00
11650;DHT22;5881;48.522;7.682;2022-07-29T00:37:23;19.40;1.00
11650;DHT22;5881;48.522;7.682;2022-07-29T00:39:49;19.50;1.00
11650;DHT22;5881;48.522;7.682;2022-07-29T00:42:15;19.50;1.00
11650;DHT22;5881;48.522;7.682;2022-07-29T00:44:42;19.50;1.00
11650;DHT22;5881;48.522;7.682;2022-07-29T00:47:09;19.40;1.00
11650;DHT22;5881;48.522;7.682;2022-07-29T00:49:35;19.40;1.00
11650;DHT22;5881;48.522;7.682;2022-07-29T00:52:05;19.30;1.00
11650;DHT22;5881;48.522;7.682;2022-07-29T00:54:32;19.30;1.00
11650;DHT22;5881;48.522;7.682;2022-07-29T00:56:58;19.30;1.00
11650;DHT22;5881;48.522;7.682;2022-07-29T00:59:27;19.50;1.00
11650;DHT22;5881;48.522;7.682;2022-07-29T01:01:54;19.50;1.00
11650;DHT22;5881;48.522;7.682;2022-07-29T01:04:20;19.40;1.00
11650;DHT22;5881;48.522;7.682;2022-07-29T01:06:47;19.30;1.00
11650;DHT22;5881;48.522;7.682;2022-07-29T01:09:14;19.20;1.00
11650;DHT22;5881;48.522;7.682;2022-07-29T01:11:40;19.10;1.00
11650;DHT22;5881;48.522;7.682;2022-07-29T01:14:07;19.10;1.00
11650;DHT22;5881;48.522;7.682;2022-07-29T01:16:39;19.10;1.00
11650;DHT22;5881;48.522;7.682;2022-07-29T01:21:59;19.00;1.00
11650;DHT22;5881;48.522;7.682;2022-07-29T01:30:29;19.00;1.00
11650;DHT22;5881;48.522;7.682;2022-07-29T01:33:00;19.00;1.00
11650;DHT22;5881;48.522;7.682;2022-07-29T01:35:39;19.00;1.00
11650;DHT22;5881;48.522;7.682;2022-07-29T01:38:11;19.00;1.00
11650;DHT22;5881;48.522;7.682;2022-07-29T01:40:44;19.10;1.00
11650;DHT22;5881;48.522;7.682;2022-07-29T01:43:14;19.00;1.00
11650;DHT22;5881;48.522;7.682;2022-07-29T01:45:43;18.90;14.40
11650;DHT22;5881;48.522;7.682;2022-07-29T01:48:47;18.90;12.90
11650;DHT22;5881;48.522;7.682;2022-07-29T01:56:40;18.80;68.00
11650;DHT22;5881;48.522;7.682;2022-07-29T01:59:08;18.90;26.90
11650;DHT22;5881;48.522;7.682;2022-07-29T02:01:35;18.70;46.70
11650;DHT22;5881;48.522;7.682;2022-07-29T02:04:06;18.60;99.90
11650;DHT22;5881;48.522;7.682;2022-07-29T02:06:33;18.40;99.90
11650;DHT22;5881;48.522;7.682;2022-07-29T02:09:01;18.30;99.90
11650;DHT22;5881;48.522;7.682;2022-07-29T02:11:27;18.30;99.90
11650;DHT22;5881;48.522;7.682;2022-07-29T02:13:56;18.40;99.90
11650;DHT22;5881;48.522;7.682;2022-07-29T02:16:23;18.40;99.90
11650;DHT22;5881;48.522;7.682;2022-07-29T02:18:52;18.40;99.90
11650;DHT22;5881;48.522;7.682;2022-07-29T02:21:22;18.40;99.90
11650;DHT22;5881;48.522;7.682;2022-07-29T02:23:48;18.40;99.90
11650;DHT22;5881;48.522;7.682;2022-07-29T02:26:15;18.50;99.90
11650;DHT22;5881;48.522;7.682;2022-07-29T02:28:42;18.40;99.90
11650;DHT22;5881;48.522;7.682;2022-07-29T02:31:09;18.30;99.90
11650;DHT22;5881;48.522;7.682;2022-07-29T02:33:35;18.30;1.00
11650;DHT22;5881;48.522;7.682;2022-07-29T02:36:03;18.40;1.00
11650;DHT22;5881;48.522;7.682;2022-07-29T02:38:29;18.50;1.00
11650;DHT22;5881;48.522;7.682;2022-07-29T02:41:20;18.50;1.00
11650;DHT22;5881;48.522;7.682;2022-07-29T02:43:50;18.50;1.00
11650;DHT22;5881;48.522;7.682;2022-07-29T02:46:23;18.30;1.00
11650;DHT22;5881;48.522;7.682;2022-07-29T02:49:12;18.40;1.00
11650;DHT22;5881;48.522;7.682;2022-07-29T02:52:02;18.30;39.90
11650;DHT22;5881;48.522;7.682;2022-07-29T02:54:53;18.30;99.90
11650;DHT22;5881;48.522;7.682;2022-07-29T02:57:33;18.30;97.50
11650;DHT22;5881;48.522;7.682;2022-07-29T03:00:04;18.30;99.90
11650;DHT22;5881;48.522;7.682;2022-07-29T03:02:35;18.30;99.90
11650;DHT22;5881;48.522;7.682;2022-07-29T03:05:03;18.30;1.00
11650;DHT22;5881;48.522;7.682;2022-07-29T03:07:29;18.30;1.00
11650;DHT22;5881;48.522;7.682;2022-07-29T03:09:56;18.30;1.00
11650;DHT22;5881;48.522;7.682;2022-07-29T03:12:23;18.20;1.00
11650;DHT22;5881;48.522;7.682;2022-07-29T03:14:49;18.10;1.00
11650;DHT22;5881;48.522;7.682;2022-07-29T03:17:15;18.10;48.30
11650;DHT22;5881;48.522;7.682;2022-07-29T03:19:42;18.10;99.90
11650;DHT22;5881;48.522;7.682;2022-07-29T03:22:08;18.10;99.90
11650;DHT22;5881;48.522;7.682;2022-07-29T03:24:35;18.00;1.00
11650;DHT22;5881;48.522;7.682;2022-07-29T03:27:02;17.90;1.00
11650;DHT22;5881;48.522;7.682;2022-07-29T03:29:28;17.80;2.30
11650;DHT22;5881;48.522;7.682;2022-07-29T03:31:54;17.70;1.00
11650;DHT22;5881;48.522;7.682;2022-07-29T03:34:20;17.70;99.90
11650;DHT22;5881;48.522;7.682;2022-07-29T03:36:45;17.70;1.00
11650;DHT22;5881;48.522;7.682;2022-07-29T03:39:15;17.60;1.00
11650;DHT22;5881;48.522;7.682;2022-07-29T03:41:42;17.70;99.90
11650;DHT22;5881;48.522;7.682;2022-07-29T03:44:09;17.70;13.80
11650;DHT22;5881;48.522;7.682;2022-07-29T03:46:37;17.70;1.00
11650;DHT22;5881;48.522;7.682;2022-07-29T03:49:04;17.80;99.90
11650;DHT22;5881;48.522;7.682;2022-07-29T03:51:30;17.70;99.90
11650;DHT22;5881;48.522;7.682;2022-07-29T03:53:56;17.70;99.90
11650;DHT22;5881;48.522;7.682;2022-07-29T03:56:23;17.70;56.00
11650;DHT22;5881;48.522;7.682;2022-07-29T03:58:51;17.70;1.00
11650;DHT22;5881;48.522;7.682;2022-07-29T04:01:18;17.80;99.90
11650;DHT22;5881;48.522;7.682;2022-07-29T04:03:45;17.90;99.90
11650;DHT22;5881;48.522;7.682;2022-07-29T04:06:11;18.10;99.90
11650;DHT22;5881;48.522;7.682;2022-07-29T04:08:37;18.20;99.90
11650;DHT22;5881;48.522;7.682;2022-07-29T04:11:04;18.20;99.90
11650;DHT22;5881;48.522;7.682;2022-07-29T04:13:31;18.00;1.00
11650;DHT22;5881;48.522;7.682;2022-07-29T04:15:57;18.10;1.00
11650;DHT22;5881;48.522;7.682;2022-07-29T04:18:23;18.10;1.00
11650;DHT22;5881;48.522;7.682;2022-07-29T04:20:49;18.20;99.90
11650;DHT22;5881;48.522;7.682;2022-07-29T04:23:14;18.30;1.00
11650;DHT22;5881;48.522;7.682;2022-07-29T04:25:41;18.30;1.00
11650;DHT22;5881;48.522;7.682;2022-07-29T04:28:07;18.30;45.00
11650;DHT22;5881;48.522;7.682;2022-07-29T04:30:34;18.40;1.00
11650;DHT22;5881;48.522;7.682;2022-07-29T04:33:00;18.60;1.00
11650;DHT22;5881;48.522;7.682;2022-07-29T04:35:27;18.70;99.90
11650;DHT22;5881;48.522;7.682;2022-07-29T04:37:53;18.70;99.90
11650;DHT22;5881;48.522;7.682;2022-07-29T04:40:19;18.80;99.90
11650;DHT22;5881;48.522;7.682;2022-07-29T04:42:45;18.80;99.90
11650;DHT22;5881;48.522;7.682;2022-07-29T04:45:10;18.90;1.00
11650;DHT22;5881;48.522;7.682;2022-07-29T04:47:36;19.00;1.00
11650;DHT22;5881;48.522;7.682;2022-07-29T04:50:02;19.10;1.00
11650;DHT22;5881;48.522;7.682;2022-07-29T04:52:27;19.30;1.00
11650;DHT22;5881;48.522;7.682;2022-07-29T04:54:53;19.40;1.00
11650;DHT22;5881;48.522;7.682;2022-07-29T04:57:19;19.50;1.00
11650;DHT22;5881;48.522;7.682;2022-07-29T04:59:44;19.50;99.90
11650;DHT22;5881;48.522;7.682;2022-07-29T05:02:10;19.60;99.90
11650;DHT22;5881;48.522;7.682;2022-07-29T05:04:35;19.60;99.90
11650;DHT22;5881;48.522;7.682;2022-07-29T05:07:01;19.60;99.90
11650;DHT22;5881;48.522;7.682;2022-07-29T05:09:27;19.80;99.90
11650;DHT22;5881;48.522;7.682;2022-07-29T05:11:52;20.20;99.90
11650;DHT22;5881;48.522;7.682;2022-07-29T05:14:18;20.20;99.90
11650;DHT22;5881;48.522;7.682;2022-07-29T05:16:44;20.20;99.90
11650;DHT22;5881;48.522;7.682;2022-07-29T05:19:09;20.40;99.90
11650;DHT22;5881;48.522;7.682;2022-07-29T05:21:35;20.20;99.90
11650;DHT22;5881;48.522;7.682;2022-07-29T05:24:01;20.30;99.90
11650;DHT22;5881;48.522;7.682;2022-07-29T05:26:26;21.20;70.00
11650;DHT22;5881;48.522;7.682;2022-07-29T05:28:52;22.00;1.00
11650;DHT22;5881;48.522;7.682;2022-07-29T05:31:19;22.70;1.00
11650;DHT22;5881;48.522;7.682;2022-07-29T05:33:44;22.20;1.00
11650;DHT22;5881;48.522;7.682;2022-07-29T05:36:11;22.90;1.00
11650;DHT22;5881;48.522;7.682;2022-07-29T05:38:37;23.60;1.00
11650;DHT22;5881;48.522;7.682;2022-07-29T05:41:03;23.00;1.00
11650;DHT22;5881;48.522;7.682;2022-07-29T05:43:29;22.30;1.00
11650;DHT22;5881;48.522;7.682;2022-07-29T05:45:55;22.10;1.00
11650;DHT22;5881;48.522;7.682;2022-07-29T05:48:21;22.50;1.00
11650;DHT22;5881;48.522;7.682;2022-07-29T05:50:46;23.00;1.00
11650;DHT22;5881;48.522;7.682;2022-07-29T05:53:12;22.90;1.00
11650;DHT22;5881;48.522;7.682;2022-07-29T05:55:38;22.60;1.00
11650;DHT22;5881;48.522;7.682;2022-07-29T05:58:03;22.80;1.00
11650;DHT22;5881;48.522;7.682;2022-07-29T06:00:29;23.50;1.00
11650;DHT22;5881;48.522;7.682;2022-07-29T06:02:55;24.30;1.00
11650;DHT22;5881;48.522;7.682;2022-07-29T06:05:22;24.10;1.00
11650;DHT22;5881;48.522;7.682;2022-07-29T06:07:47;24.00;1.00
11650;DHT22;5881;48.522;7.682;2022-07-29T06:10:13;23.70;1.00
11650;DHT22;5881;48.522;7.682;2022-07-29T06:12:39;23.40;1.00
11650;DHT22;5881;48.522;7.682;2022-07-29T06:15:05;23.10;1.00
11650;DHT22;5881;48.522;7.682;2022-07-29T06:17:31;22.60;1.00
11650;DHT22;5881;48.522;7.682;2022-07-29T06:19:57;22.40;1.00
11650;DHT22;5881;48.522;7.682;2022-07-29T06:22:22;22.70;1.00
11650;DHT22;5881;48.522;7.682;2022-07-29T06:24:49;23.10;1.00
11650;DHT22;5881;48.522;7.682;2022-07-29T06:27:15;23.00;1.00
11650;DHT22;5881;48.522;7.682;2022-07-29T06:29:41;23.00;1.00
11650;DHT22;5881;48.522;7.682;2022-07-29T06:32:07;23.20;1.00
11650;DHT22;5881;48.522;7.682;2022-07-29T06:34:35;23.10;1.00
11650;DHT22;5881;48.522;7.682;2022-07-29T06:37:05;23.10;1.00
11650;DHT22;5881;48.522;7.682;2022-07-29T06:39:30;23.40;1.00
11650;DHT22;5881;48.522;7.682;2022-07-29T06:41:56;23.60;1.00
11650;DHT22;5881;48.522;7.682;2022-07-29T06:44:21;23.90;1.00
11650;DHT22;5881;48.522;7.682;2022-07-29T06:46:47;24.20;1.00
11650;DHT22;5881;48.522;7.682;2022-07-29T06:49:15;24.20;1.00
11650;DHT22;5881;48.522;7.682;2022-07-29T06:51:41;24.60;1.00
11650;DHT22;5881;48.522;7.682;2022-07-29T06:54:06;24.20;1.00
11650;DHT22;5881;48.522;7.682;2022-07-29T06:56:34;23.80;1.00
11650;DHT22;5881;48.522;7.682;2022-07-29T06:59:02;24.10;1.00
11650;DHT22;5881;48.522;7.682;2022-07-29T07:01:28;24.80;1.00
11650;DHT22;5881;48.522;7.682;2022-07-29T07:03:53;26.60;1.00
11650;DHT22;5881;48.522;7.682;2022-07-29T07:06:19;27.70;1.00
11650;DHT22;5881;48.522;7.682;2022-07-29T07:08:45;28.10;1.00
11650;DHT22;5881;48.522;7.682;2022-07-29T07:11:11;27.70;1.00
11650;DHT22;5881;48.522;7.682;2022-07-29T07:13:37;27.50;1.00
11650;DHT22;5881;48.522;7.682;2022-07-29T07:16:03;27.50;1.00
11650;DHT22;5881;48.522;7.682;2022-07-29T07:18:29;30.00;1.00
11650;DHT22;5881;48.522;7.682;2022-07-29T07:20:55;31.00;1.00
11650;DHT22;5881;48.522;7.682;2022-07-29T07:23:21;31.30;1.00
11650;DHT22;5881;48.522;7.682;2022-07-29T07:25:47;30.00;1.00
11650;DHT22;5881;48.522;7.682;2022-07-29T07:28:12;29.00;1.00
11650;DHT22;5881;48.522;7.682;2022-07-29T07:30:39;29.10;1.00
11650;DHT22;5881;48.522;7.682;2022-07-29T07:33:04;28.90;1.00
11650;DHT22;5881;48.522;7.682;2022-07-29T07:35:30;28.60;1.00
11650;DHT22;5881;48.522;7.682;2022-07-29T07:37:56;28.20;1.00
11650;DHT22;5881;48.522;7.682;2022-07-29T07:40:22;28.60;1.00
11650;DHT22;5881;48.522;7.682;2022-07-29T07:42:48;29.30;1.00
11650;DHT22;5881;48.522;7.682;2022-07-29T07:45:13;30.30;1.00
11650;DHT22;5881;48.522;7.682;2022-07-29T07:47:39;29.40;1.00
11650;DHT22;5881;48.522;7.682;2022-07-29T07:50:07;30.40;1.00
11650;DHT22;5881;48.522;7.682;2022-07-29T07:52:33;31.20;1.00
11650;DHT22;5881;48.522;7.682;2022-07-29T07:54:59;30.40;1.00
11650;DHT22;5881;48.522;7.682;2022-07-29T07:57:25;31.00;1.00
11650;DHT22;5881;48.522;7.682;2022-07-29T07:59:50;30.00;1.00
11650;DHT22;5881;48.522;7.682;2022-07-29T08:02:16;30.40;1.00
11650;DHT22;5881;48.522;7.682;2022-07-29T08:04:42;30.30;1.00
11650;DHT22;5881;48.522;7.682;2022-07-29T08:07:08;29.90;1.00
11650;DHT22;5881;48.522;7.682;2022-07-29T08:09:35;30.80;1.00
11650;DHT22;5881;48.522;7.682;2022-07-29T08:12:04;32.50;1.00
11650;DHT22;5881;48.522;7.682;2022-07-29T08:14:31;31.90;1.00
11650;DHT22;5881;48.522;7.682;2022-07-29T08:16:57;32.60;1.00
11650;DHT22;5881;48.522;7.682;2022-07-29T08:19:23;33.40;1.00
11650;DHT22;5881;48.522;7.682;2022-07-29T08:21:49;33.70;1.00
11650;DHT22;5881;48.522;7.682;2022-07-29T08:24:17;33.50;1.00
11650;DHT22;5881;48.522;7.682;2022-07-29T08:27:01;32.90;1.00
11650;DHT22;5881;48.522;7.682;2022-07-29T08:29:27;33.30;1.00
11650;DHT22;5881;48.522;7.682;2022-07-29T08:31:53;33.30;1.00
11650;DHT22;5881;48.522;7.682;2022-07-29T08:34:18;33.90;1.00
11650;DHT22;5881;48.522;7.682;2022-07-29T08:36:44;34.20;1.00
11650;DHT22;5881;48.522;7.682;2022-07-29T08:39:10;34.60;1.00
11650;DHT22;5881;48.522;7.682;2022-07-29T08:41:35;34.50;1.00
11650;DHT22;5881;48.522;7.682;2022-07-29T08:44:01;34.50;1.00
11650;DHT22;5881;48.522;7.682;2022-07-29T08:46:27;33.10;1.00
11650;DHT22;5881;48.522;7.682;2022-07-29T08:48:52;32.20;1.00
11650;DHT22;5881;48.522;7.682;2022-07-29T08:51:20;30.60;1.00
11650;DHT22;5881;48.522;7.682;2022-07-29T08:53:50;31.60;1.00
11650;DHT22;5881;48.522;7.682;2022-07-29T08:56:16;31.90;1.00
11650;DHT22;5881;48.522;7.682;2022-07-29T08:58:44;31.70;1.00
11650;DHT22;5881;48.522;7.682;2022-07-29T09:01:11;32.00;1.00
11650;DHT22;5881;48.522;7.682;2022-07-29T09:03:40;31.90;1.00
11650;DHT22;5881;48.522;7.682;2022-07-29T09:06:06;32.00;1.00
11650;DHT22;5881;48.522;7.682;2022-07-29T09:08:32;32.70;1.00
11650;DHT22;5881;48.522;7.682;2022-07-29T09:11:00;32.30;1.00
11650;DHT22;5881;48.522;7.682;2022-07-29T09:13:26;32.00;1.00
11650;DHT22;5881;48.522;7.682;2022-07-29T09:15:52;31.60;1.00
11650;DHT22;5881;48.522;7.682;2022-07-29T09:21:00;33.30;1.00
11650;DHT22;5881;48.522;7.682;2022-07-29T09:26:31;35.50;1.00
11650;DHT22;5881;48.522;7.682;2022-07-29T09:28:58;36.10;1.00
11650;DHT22;5881;48.522;7.682;2022-07-29T09:31:36;35.70;1.00
11650;DHT22;5881;48.522;7.682;2022-07-29T09:34:03;35.70;1.00
11650;DHT22;5881;48.522;7.682;2022-07-29T09:36:29;36.00;1.00
11650;DHT22;5881;48.522;7.682;2022-07-29T09:39:02;35.70;1.00
11650;DHT22;5881;48.522;7.682;2022-07-29T09:41:28;36.60;1.00
11650;DHT22;5881;48.522;7.682;2022-07-29T09:43:58;35.70;1.00
11650;DHT22;5881;48.522;7.682;2022-07-29T09:46:24;33.80;1.00
11650;DHT22;5881;48.522;7.682;2022-07-29T09:49:10;33.40;1.00
11650;DHT22;5881;48.522;7.682;2022-07-29T09:51:36;34.00;1.00
11650;DHT22;5881;48.522;7.682;2022-07-29T09:54:21;33.10;1.00
11650;DHT22;5881;48.522;7.682;2022-07-29T09:56:48;33.50;1.00
11650;DHT22;5881;48.522;7.682;2022-07-29T09:59:14;33.90;1.00
11650;DHT22;5881;48.522;7.682;2022-07-29T10:01:40;33.50;1.00
11650;DHT22;5881;48.522;7.682;2022-07-29T10:04:06;31.90;1.00
11650;DHT22;5881;48.522;7.682;2022-07-29T10:06:31;31.10;1.00
11650;DHT22;5881;48.522;7.682;2022-07-29T10:09:17;31.80;1.00
11650;DHT22;5881;48.522;7.682;2022-07-29T10:12:02;32.20;1.00
11650;DHT22;5881;48.522;7.682;2022-07-29T10:14:30;32.10;1.00
11650;DHT22;5881;48.522;7.682;2022-07-29T10:16:56;31.90;1.00
11650;DHT22;5881;48.522;7.682;2022-07-29T10:19:22;32.00;1.00
11650;DHT22;5881;48.522;7.682;2022-07-29T10:21:48;31.50;1.00
11650;DHT22;5881;48.522;7.682;2022-07-29T10:24:14;31.80;1.00
11650;DHT22;5881;48.522;7.682;2022-07-29T10:26:40;31.90;1.00
11650;DHT22;5881;48.522;7.682;2022-07-29T10:29:06;32.20;1.00
11650;DHT22;5881;48.522;7.682;2022-07-29T10:31:44;31.80;1.00
11650;DHT22;5881;48.522;7.682;2022-07-29T10:34:42;31.70;1.00
11650;DHT22;5881;48.522;7.682;2022-07-29T10:37:40;31.50;1.00
11650;DHT22;5881;48.522;7.682;2022-07-29T10:40:33;31.40;1.00
11650;DHT22;5881;48.522;7.682;2022-07-29T10:43:29;32.70;1.00
11650;DHT22;5881;48.522;7.682;2022-07-29T10:45:57;34.30;1.00
11650;DHT22;5881;48.522;7.682;2022-07-29T10:48:24;34.70;1.00
11650;DHT22;5881;48.522;7.682;2022-07-29T10:51:01;35.60;1.00
11650;DHT22;5881;48.522;7.682;2022-07-29T10:54:01;35.50;1.00
11650;DHT22;5881;48.522;7.682;2022-07-29T10:56:32;34.50;1.00
11650;DHT22;5881;48.522;7.682;2022-07-29T11:01:46;31.30;1.00
11650;DHT22;5881;48.522;7.682;2022-07-29T11:04:12;31.20;1.00
11650;DHT22;5881;48.522;7.682;2022-07-29T11:09:23;31.50;1.00
11650;DHT22;5881;48.522;7.682;2022-07-29T11:11:49;31.10;1.00
11650;DHT22;5881;48.522;7.682;2022-07-29T11:14:15;31.40;1.00
11650;DHT22;5881;48.522;7.682;2022-07-29T11:17:02;31.80;1.00
11650;DHT22;5881;48.522;7.682;2022-07-29T11:19:28;30.80;1.00
11650;DHT22;5881;48.522;7.682;2022-07-29T11:21:54;30.80;1.00
11650;DHT22;5881;48.522;7.682;2022-07-29T11:24:25;31.20;1.00
11650;DHT22;5881;48.522;7.682;2022-07-29T11:27:31;31.10;1.00
11650;DHT22;5881;48.522;7.682;2022-07-29T11:30:05;30.70;1.00
11650;DHT22;5881;48.522;7.682;2022-07-29T11:32:39;30.10;1.00
11650;DHT22;5881;48.522;7.682;2022-07-29T11:35:18;30.00;1.00
11650;DHT22;5881;48.522;7.682;2022-07-29T11:41:27;29.60;1.00
11650;DHT22;5881;48.522;7.682;2022-07-29T11:43:57;29.50;1.00
11650;DHT22;5881;48.522;7.682;2022-07-29T11:46:43;29.70;1.00
11650;DHT22;5881;48.522;7.682;2022-07-29T11:49:10;29.50;1.00
11650;DHT22;5881;48.522;7.682;2022-07-29T11:51:39;29.80;1.00
11650;DHT22;5881;48.522;7.682;2022-07-29T11:54:05;29.60;1.00
11650;DHT22;5881;48.522;7.682;2022-07-29T11:56:34;29.60;1.00
11650;DHT22;5881;48.522;7.682;2022-07-29T11:59:05;29.50;1.00
11650;DHT22;5881;48.522;7.682;2022-07-29T12:01:32;29.50;1.00
11650;DHT22;5881;48.522;7.682;2022-07-29T12:04:07;29.40;1.00
11650;DHT22;5881;48.522;7.682;2022-07-29T12:06:34;29.20;1.00
11650;DHT22;5881;48.522;7.682;2022-07-29T12:09:00;29.40;1.00
11650;DHT22;5881;48.522;7.682;2022-07-29T12:11:26;29.50;1.00
11650;DHT22;5881;48.522;7.682;2022-07-29T12:13:52;29.50;1.00
11650;DHT22;5881;48.522;7.682;2022-07-29T12:16:19;29.40;1.00
11650;DHT22;5881;48.522;7.682;2022-07-29T12:19:02;29.50;1.00
11650;DHT22;5881;48.522;7.682;2022-07-29T12:21:29;30.00;1.00
11650;DHT22;5881;48.522;7.682;2022-07-29T12:23:56;29.70;1.00
11650;DHT22;5881;48.522;7.682;2022-07-29T12:26:22;29.50;1.00
11650;DHT22;5881;48.522;7.682;2022-07-29T12:28:48;29.50;1.00
11650;DHT22;5881;48.522;7.682;2022-07-29T12:31:15;29.40;1.00
11650;DHT22;5881;48.522;7.682;2022-07-29T12:33:41;29.50;1.00
11650;DHT22;5881;48.522;7.682;2022-07-29T12:36:07;29.40;1.00
11650;DHT22;5881;48.522;7.682;2022-07-29T12:38:37;29.20;1.00
11650;DHT22;5881;48.522;7.682;2022-07-29T12:41:05;29.00;1.00
11650;DHT22;5881;48.522;7.682;2022-07-29T12:43:31;29.00;1.00
11650;DHT22;5881;48.522;7.682;2022-07-29T12:45:57;29.30;1.00
11650;DHT22;5881;48.522;7.682;2022-07-29T12:48:37;29.00;1.00
11650;DHT22;5881;48.522;7.682;2022-07-29T12:51:04;29.00;1.00
11650;DHT22;5881;48.522;7.682;2022-07-29T12:53:31;29.20;1.00
11650;DHT22;5881;48.522;7.682;2022-07-29T12:55:58;29.20;1.00
11650;DHT22;5881;48.522;7.682;2022-07-29T12:58:30;29.00;1.00
11650;DHT22;5881;48.522;7.682;2022-07-29T13:01:16;29.00;1.00
11650;DHT22;5881;48.522;7.682;2022-07-29T13:03:57;29.10;1.00
11650;DHT22;5881;48.522;7.682;2022-07-29T13:06:33;29.40;1.00
11650;DHT22;5881;48.522;7.682;2022-07-29T13:09:12;29.30;1.00
11650;DHT22;5881;48.522;7.682;2022-07-29T13:11:47;29.40;1.00
11650;DHT22;5881;48.522;7.682;2022-07-29T13:14:31;29.40;1.00
11650;DHT22;5881;48.522;7.682;2022-07-29T13:17:13;29.40;1.00
11650;DHT22;5881;48.522;7.682;2022-07-29T13:19:49;29.50;1.00
11650;DHT22;5881;48.522;7.682;2022-07-29T13:22:20;29.40;1.00
11650;DHT22;5881;48.522;7.682;2022-07-29T13:24:49;29.40;1.00
11650;DHT22;5881;48.522;7.682;2022-07-29T13:27:24;29.40;1.00
11650;DHT22;5881;48.522;7.682;2022-07-29T13:29:51;29.40;1.00
11650;DHT22;5881;48.522;7.682;2022-07-29T13:32:20;29.60;1.00
11650;DHT22;5881;48.522;7.682;2022-07-29T13:34:46;29.60;1.00
11650;DHT22;5881;48.522;7.682;2022-07-29T13:37:12;29.70;1.00
11650;DHT22;5881;48.522;7.682;2022-07-29T13:39:38;29.90;1.00
11650;DHT22;5881;48.522;7.682;2022-07-29T13:42:04;30.10;1.00
11650;DHT22;5881;48.522;7.682;2022-07-29T13:44:30;29.70;1.00
11650;DHT22;5881;48.522;7.682;2022-07-29T13:46:56;29.80;1.00
11650;DHT22;5881;48.522;7.682;2022-07-29T13:49:21;29.60;1.00
11650;DHT22;5881;48.522;7.682;2022-07-29T13:51:49;29.60;1.00
11650;DHT22;5881;48.522;7.682;2022-07-29T13:54:14;29.70;1.00
11650;DHT22;5881;48.522;7.682;2022-07-29T13:56:40;29.70;1.00
11650;DHT22;5881;48.522;7.682;2022-07-29T13:59:06;29.80;1.00
11650;DHT22;5881;48.522;7.682;2022-07-29T14:01:33;29.60;1.00
11650;DHT22;5881;48.522;7.682;2022-07-29T14:03:59;29.70;1.00
11650;DHT22;5881;48.522;7.682;2022-07-29T14:06:25;30.00;1.00
11650;DHT22;5881;48.522;7.682;2022-07-29T14:08:50;29.90;1.00
11650;DHT22;5881;48.522;7.682;2022-07-29T14:11:16;29.70;1.00
11650;DHT22;5881;48.522;7.682;2022-07-29T14:13:42;29.80;1.00
11650;DHT22;5881;48.522;7.682;2022-07-29T14:16:10;29.50;1.00
11650;DHT22;5881;48.522;7.682;2022-07-29T14:18:36;29.60;1.00
11650;DHT22;5881;48.522;7.682;2022-07-29T14:21:02;30.00;1.00
11650;DHT22;5881;48.522;7.682;2022-07-29T14:23:27;30.00;1.00
11650;DHT22;5881;48.522;7.682;2022-07-29T14:25:53;30.10;1.00
11650;DHT22;5881;48.522;7.682;2022-07-29T14:28:19;29.70;1.00
11650;DHT22;5881;48.522;7.682;2022-07-29T14:30:44;29.80;1.00
11650;DHT22;5881;48.522;7.682;2022-07-29T14:33:10;29.80;1.00
11650;DHT22;5881;48.522;7.682;2022-07-29T14:35:36;29.70;1.00
11650;DHT22;5881;48.522;7.682;2022-07-29T14:38:02;29.80;1.00
11650;DHT22;5881;48.522;7.682;2022-07-29T14:40:27;29.90;1.00
11650;DHT22;5881;48.522;7.682;2022-07-29T14:42:53;30.00;1.00
11650;DHT22;5881;48.522;7.682;2022-07-29T14:45:19;30.10;1.00
11650;DHT22;5881;48.522;7.682;2022-07-29T14:47:44;30.10;1.00
11650;DHT22;5881;48.522;7.682;2022-07-29T14:50:10;30.50;1.00
11650;DHT22;5881;48.522;7.682;2022-07-29T14:52:36;30.00;1.00
11650;DHT22;5881;48.522;7.682;2022-07-29T14:55:03;29.70;1.00
11650;DHT22;5881;48.522;7.682;2022-07-29T14:57:28;29.00;1.00
11650;DHT22;5881;48.522;7.682;2022-07-29T14:59:54;29.00;1.00
11650;DHT22;5881;48.522;7.682;2022-07-29T15:02:20;29.00;1.00
11650;DHT22;5881;48.522;7.682;2022-07-29T15:04:46;28.80;1.00
11650;DHT22;5881;48.522;7.682;2022-07-29T15:07:13;28.40;1.00
11650;DHT22;5881;48.522;7.682;2022-07-29T15:09:39;28.40;1.00
11650;DHT22;5881;48.522;7.682;2022-07-29T15:12:05;28.80;1.00
11650;DHT22;5881;48.522;7.682;2022-07-29T15:14:31;28.70;1.00
11650;DHT22;5881;48.522;7.682;2022-07-29T15:16:57;28.40;1.00
11650;DHT22;5881;48.522;7.682;2022-07-29T15:19:23;28.50;1.00
11650;DHT22;5881;48.522;7.682;2022-07-29T15:21:48;28.70;1.00
11650;DHT22;5881;48.522;7.682;2022-07-29T15:24:15;28.40;1.00
11650;DHT22;5881;48.522;7.682;2022-07-29T15:26:41;28.80;1.00
11650;DHT22;5881;48.522;7.682;2022-07-29T15:29:08;28.90;1.00
11650;DHT22;5881;48.522;7.682;2022-07-29T15:31:33;28.60;1.00
11650;DHT22;5881;48.522;7.682;2022-07-29T15:33:59;28.60;1.00
11650;DHT22;5881;48.522;7.682;2022-07-29T15:36:24;28.50;1.00
11650;DHT22;5881;48.522;7.682;2022-07-29T15:38:54;28.80;1.00
11650;DHT22;5881;48.522;7.682;2022-07-29T15:41:20;28.70;1.00
11650;DHT22;5881;48.522;7.682;2022-07-29T15:43:47;28.80;1.00
11650;DHT22;5881;48.522;7.682;2022-07-29T15:46:19;29.00;1.00
11650;DHT22;5881;48.522;7.682;2022-07-29T15:49:04;28.80;1.00
11650;DHT22;5881;48.522;7.682;2022-07-29T15:51:31;28.70;1.00
11650;DHT22;5881;48.522;7.682;2022-07-29T15:53:56;28.40;1.00
11650;DHT22;5881;48.522;7.682;2022-07-29T15:56:23;28.50;1.00
11650;DHT22;5881;48.522;7.682;2022-07-29T15:58:49;28.50;1.00
11650;DHT22;5881;48.522;7.682;2022-07-29T16:01:15;28.60;1.00
11650;DHT22;5881;48.522;7.682;2022-07-29T16:03:41;28.70;1.00
11650;DHT22;5881;48.522;7.682;2022-07-29T16:06:06;28.60;1.00
11650;DHT22;5881;48.522;7.682;2022-07-29T16:08:32;28.70;1.00
11650;DHT22;5881;48.522;7.682;2022-07-29T16:10:57;28.20;1.00
11650;DHT22;5881;48.522;7.682;2022-07-29T16:13:23;28.30;1.00
11650;DHT22;5881;48.522;7.682;2022-07-29T16:15:49;28.20;1.00
11650;DHT22;5881;48.522;7.682;2022-07-29T16:18:15;28.40;1.00
11650;DHT22;5881;48.522;7.682;2022-07-29T16:20:41;28.30;1.00
11650;DHT22;5881;48.522;7.682;2022-07-29T16:23:07;27.90;1.00
11650;DHT22;5881;48.522;7.682;2022-07-29T16:25:37;27.70;1.00
11650;DHT22;5881;48.522;7.682;2022-07-29T16:28:03;27.80;1.00
11650;DHT22;5881;48.522;7.682;2022-07-29T16:30:29;27.60;1.00
11650;DHT22;5881;48.522;7.682;2022-07-29T16:32:54;27.70;1.00
11650;DHT22;5881;48.522;7.682;2022-07-29T16:35:20;27.70;1.00